Weather History for Meadow Lake, CO

Change the Weather History Date:

Wednesday, March 7, 2012

  Actual Average (KCOS) Record (KCOS)
Temperature  
Mean Temperature 36 °F 37 °F  
Max Temperature 44 °F 50 °F 70 °F (1925)
Min Temperature 27 °F 24 °F -11 °F (1920)
Degree Days  
Heating Degree Days 30 28  
Month to date heating degree days 203  
Since 1 July heating degree days 4766  
Cooling Degree Days 0 0  
Month to date cooling degree days 0  
Year to date cooling degree days 0  
Moisture  
Dew Point 23 °F    
Average Humidity 69    
Maximum Humidity 99    
Minimum Humidity 22    
Precipitation  
Precipitation 0.00 in 0.03 in 0.59 in (1964)
Month to date precipitation 0.19  
Year to date precipitation 0.85  
Snow  
Snow 0.00 in 0.20 in 13.30 in (1964)
Month to date snowfall 1.6  
Since 1 July snowfall 25.6  
Snow Depth -    
Sea Level Pressure  
Sea Level Pressure 29.78 in    
Wind  
Wind Speed 12 mph (NNE)    
Max Wind Speed 22 mph    
Max Gust Speed 32 mph    
Visibility 10 miles    
Events      
T = Trace of Precipitation, MM = Missing Value Source: NWS Daily Summary

Daily Weather History Graph

Daily Weather History Graph

Search for Another Location

Airport:

Trip Planner

Search our weather history database for the weather conditions in past years. The results will help you decide how hot, cold, wet, or windy it might be!

Date:

Astronomy

Mar. 07, 2012 Rise Set
Actual Time 6:21 AM MST 5:57 PM MST
Civil Twilight 5:54 AM MST 6:24 PM MST
Nautical Twilight 5:23 AM MST 6:55 PM MST
Astronomical Twilight 4:52 AM MST 7:26 PM MST
Moon 5:36 PM MST (3/7) 5:32 AM MST (3/7)
Length of Visible Light 12h 30m
Length of Day
11h 36m
Waxing Gibbous, 99% of the Moon is Illuminated
Mar 7
Waxing Gibbous
Mar 8
Full
Mar 14
Last Quarter
Mar 22
New
Mar 30
First Quarter

Hourly Weather History & Observations

Time (MST) Temp. Windchill Dew Point Humidity Pressure Visibility Wind Dir Wind Speed Gust Speed Precip Events Conditions
12:17 AM 42.8 °F 37.0 °F 6.4 °F 22% 29.64 in 10.0 mi SSW 10.4 mph 20.7 mph N/A   Clear
12:37 AM 41.4 °F 35.2 °F 7.7 °F 25% 29.62 in 10.0 mi South 10.4 mph - N/A   Clear
12:57 AM 41.2 °F 36.0 °F 7.9 °F 25% 29.62 in 10.0 mi South 8.1 mph - N/A   Clear
1:17 AM 43.3 °F 37.7 °F 8.6 °F 24% 29.63 in 10.0 mi SSW 10.4 mph - N/A   Clear
1:37 AM 44.2 °F 38.8 °F 7.9 °F 23% 29.64 in 10.0 mi SSW 10.4 mph 20.7 mph N/A   Clear
1:57 AM 42.3 °F 37.9 °F 8.2 °F 25% 29.64 in 10.0 mi SSW 6.9 mph - N/A   Clear
2:17 AM 44.4 °F 38.2 °F 8.2 °F 23% 29.63 in 10.0 mi South 12.7 mph 18.4 mph N/A   Clear
2:37 AM 41.2 °F 36.0 °F 9.7 °F 28% 29.64 in 10.0 mi SSW 8.1 mph - N/A   Clear
2:57 AM 40.6 °F 34.3 °F 10.9 °F 30% 29.66 in 10.0 mi NNW 10.4 mph 16.1 mph N/A   Clear
3:17 AM 33.8 °F 21.9 °F 24.4 °F 69% 29.67 in 10.0 mi NNW 21.9 mph 29.9 mph N/A   Clear
3:37 AM 31.6 °F 20.4 °F 25.7 °F 79% 29.68 in 10.0 mi North 17.3 mph 32.2 mph N/A   Clear
3:57 AM 30.2 °F 19.3 °F 26.2 °F 85% 29.68 in 10.0 mi North 15.0 mph 29.9 mph N/A   Clear
4:17 AM 29.7 °F 17.4 °F 26.6 °F 88% 29.68 in 10.0 mi NNE 18.4 mph 23.0 mph N/A   Clear
4:37 AM 29.1 °F 17.1 °F 26.6 °F 90% 29.69 in 10.0 mi North 17.3 mph 21.9 mph N/A   Clear
4:57 AM 29.3 °F 16.2 °F 27.0 °F 91% 29.69 in 10.0 mi North 20.7 mph 28.8 mph N/A   Clear
5:17 AM 29.1 °F 16.4 °F 27.1 °F 92% 29.70 in 10.0 mi NNE 19.6 mph 25.3 mph N/A   Mostly Cloudy
5:37 AM 29.3 °F 17.0 °F 27.5 °F 93% 29.71 in 10.0 mi North 18.4 mph 27.6 mph N/A   Overcast
5:57 AM 29.3 °F 17.0 °F 27.7 °F 94% 29.70 in 10.0 mi North 18.4 mph 27.6 mph N/A   Overcast
6:17 AM 28.9 °F 16.5 °F 27.7 °F 95% 29.72 in 10.0 mi North 18.4 mph 26.5 mph N/A   Overcast
6:37 AM 28.4 °F 17.0 °F 27.7 °F 97% 29.73 in 1.2 mi North 15.0 mph 23.0 mph N/A   Overcast
6:57 AM 27.5 °F 14.2 °F 27.1 °F 99% 29.72 in 1.2 mi NNE 19.6 mph 25.3 mph N/A   Overcast
7:17 AM 27.3 °F 14.4 °F 26.6 °F 97% 29.73 in 4.0 mi North 18.4 mph 27.6 mph N/A   Overcast
7:37 AM 27.9 °F 14.7 °F 26.2 °F 94% 29.74 in 10.0 mi North 19.6 mph 28.8 mph N/A   Overcast
7:57 AM 29.1 °F 16.0 °F 26.2 °F 89% 29.74 in 10.0 mi North 20.7 mph 25.3 mph N/A   Overcast
8:17 AM 31.1 °F 20.1 °F 26.2 °F 82% 29.74 in 10.0 mi North 16.1 mph 24.2 mph N/A   Scattered Clouds
8:37 AM 31.6 °F 19.3 °F 25.7 °F 79% 29.74 in 10.0 mi North 20.7 mph 28.8 mph N/A   Clear
8:57 AM 31.5 °F 19.4 °F 25.5 °F 79% 29.74 in 10.0 mi North 19.6 mph 29.9 mph N/A   Scattered Clouds
9:17 AM 32.0 °F 20.5 °F 25.2 °F 76% 29.75 in 10.0 mi North 18.4 mph 27.6 mph N/A   Scattered Clouds
9:37 AM 32.9 °F 21.0 °F 25.2 °F 73% 29.75 in 10.0 mi North 20.7 mph 25.3 mph N/A   Clear
9:57 AM 34.2 °F 23.3 °F 25.0 °F 69% 29.77 in 10.0 mi North 18.4 mph 21.9 mph N/A   Clear
10:17 AM 37.8 °F 30.2 °F 25.0 °F 60% 29.78 in 10.0 mi NNE 11.5 mph 16.1 mph N/A   Clear
10:37 AM 37.2 °F 29.1 °F 24.8 °F 61% 29.80 in 10.0 mi NE 12.7 mph 19.6 mph N/A   Clear
10:57 AM 36.7 °F 28.0 °F 24.8 °F 62% 29.80 in 10.0 mi NNE 13.8 mph - N/A   Clear
11:17 AM 37.0 °F 29.3 °F 25.0 °F 62% 29.80 in 10.0 mi NE 11.5 mph 19.6 mph N/A   Clear
11:37 AM 37.8 °F 29.8 °F 24.6 °F 59% 29.81 in 10.0 mi North 12.7 mph 18.4 mph N/A   Mostly Cloudy
11:57 AM 37.9 °F 30.9 °F 25.0 °F 60% 29.81 in 10.0 mi NE 10.4 mph - N/A   Overcast
12:17 PM 36.0 °F 29.0 °F 25.3 °F 65% 29.81 in 10.0 mi NNE 9.2 mph - N/A   Mostly Cloudy
12:37 PM 38.5 °F 32.7 °F 25.9 °F 61% 29.81 in 10.0 mi ENE 8.1 mph 16.1 mph N/A   Mostly Cloudy
12:57 PM 40.3 °F 37.1 °F 25.5 °F 56% 29.81 in 10.0 mi East 4.6 mph - N/A   Scattered Clouds
1:17 PM 38.8 °F 36.5 °F 25.7 °F 59% 29.81 in 10.0 mi East 3.5 mph - N/A   Mostly Cloudy
1:38 PM 43.0 °F 38.8 °F 25.3 °F 50% 29.81 in 10.0 mi ESE 6.9 mph - N/A   Mostly Cloudy
1:58 PM 41.7 °F 38.8 °F 24.8 °F 51% 29.82 in 10.0 mi SE 4.6 mph 18.4 mph N/A   Mostly Cloudy
2:18 PM 42.4 °F 36.1 °F 25.3 °F 51% 29.83 in 10.0 mi East 11.5 mph - N/A   Mostly Cloudy
2:38 PM 39.4 °F 32.7 °F 25.5 °F 58% 29.84 in 10.0 mi ESE 10.4 mph 16.1 mph N/A   Mostly Cloudy
2:58 PM 39.6 °F 33.5 °F 26.1 °F 58% 29.85 in 10.0 mi NE 9.2 mph - N/A   Scattered Clouds
3:18 PM 38.7 °F - 25.3 °F 59% 29.86 in 10.0 mi Calm Calm - N/A   Overcast
3:58 PM 35.2 °F 27.6 °F 26.4 °F 70% 29.88 in 10.0 mi NE 10.4 mph 16.1 mph N/A   Overcast
4:38 PM 32.2 °F 25.8 °F 26.2 °F 79% 29.89 in 10.0 mi NNE 6.9 mph - N/A   Scattered Clouds
4:58 PM 32.0 °F 26.4 °F 26.4 °F 80% 29.90 in 10.0 mi NE 5.8 mph - N/A   Scattered Clouds
5:18 PM 31.5 °F 28.1 °F 26.4 °F 82% 29.91 in 10.0 mi NNE 3.5 mph 16.1 mph N/A   Scattered Clouds
5:38 PM 30.2 °F 26.7 °F 25.9 °F 84% 29.92 in 10.0 mi NE 3.5 mph - N/A   Clear
5:58 PM 27.3 °F 19.9 °F 24.4 °F 89% 29.94 in 10.0 mi NE 6.9 mph - N/A   Clear
6:18 PM 27.0 °F 18.0 °F 25.2 °F 93% 29.94 in 10.0 mi East 9.2 mph - N/A   Scattered Clouds
6:38 PM 27.0 °F 17.3 °F 25.9 °F 96% 29.96 in 10.0 mi NE 10.4 mph - N/A   Scattered Clouds
6:58 PM 27.5 °F 19.3 °F 26.4 °F 96% 29.99 in 10.0 mi NE 8.1 mph - N/A   Overcast
7:18 PM 27.9 °F 19.1 °F 26.6 °F 95% 30.00 in 10.0 mi NE 9.2 mph - N/A   Overcast
7:38 PM 29.1 °F 21.3 °F 27.3 °F 93% 30.02 in 10.0 mi NNE 8.1 mph - N/A   Overcast
7:57 PM 28.6 °F 21.5 °F 27.1 °F 94% 30.03 in 10.0 mi NE 6.9 mph - N/A   Overcast
8:18 PM 28.4 °F 21.2 °F 27.0 °F 94% 30.04 in 7.0 mi NE 6.9 mph - N/A   Overcast
8:38 PM 28.0 °F 19.3 °F 27.1 °F 96% 30.04 in 4.0 mi NNE 9.2 mph - N/A   Overcast
8:58 PM 27.9 °F 19.8 °F 27.1 °F 97% 30.05 in 5.0 mi NNE 8.1 mph - N/A   Overcast
9:18 PM 27.7 °F 21.3 °F 26.6 °F 96% 30.06 in 7.0 mi North 5.8 mph - N/A   Overcast
9:38 PM 28.2 °F 17.2 °F 27.0 °F 95% 30.08 in 7.0 mi NNE 13.8 mph - N/A   Overcast
9:58 PM 27.7 °F 17.6 °F 27.0 °F 97% 30.08 in 5.0 mi NNE 11.5 mph - N/A   Overcast
10:18 PM 28.0 °F 17.5 °F 26.6 °F 94% 30.08 in 7.0 mi North 12.7 mph - N/A   Overcast
10:38 PM 28.2 °F 18.9 °F 26.6 °F 94% 30.11 in 5.0 mi North 10.4 mph 16.1 mph N/A   Overcast
10:57 PM 27.5 °F 15.9 °F 26.1 °F 94% 30.12 in 5.0 mi North 15.0 mph - N/A   Overcast
11:18 PM 27.0 °F 13.9 °F 25.7 °F 95% 30.12 in 4.0 mi North 18.4 mph - N/A   Overcast
11:38 PM 26.6 °F 14.7 °F 25.3 °F 95% 30.13 in 4.0 mi North 15.0 mph 20.7 mph N/A   Overcast
11:58 PM 26.6 °F 16.2 °F 24.4 °F 92% 30.14 in 5.0 mi North 11.5 mph 20.7 mph N/A   Overcast